Time;durP1;ratioP1;P1;durP2;ratioP2;P2;SDS_P1;SDS_P2;PMS_P1;PMS_P2;Temp;Humidity;BMP_temperature;BMP_pressure;BME280_temperature;BME280_humidity;BME280_pressure;Samples;Min_cycle;Max_cycle;Signal;HPM_P1;HPM_P2
2020/12/11 00:01:27;;;;;;;38.47;21.02;;;;;;;;;;4962771;28;20047;-89
2020/12/11 00:03:53;;;;;;;38.42;19.73;;;;;;;;;;4960457;28;20055;-89
2020/12/11 00:06:20;;;;;;;40.85;21.13;;;;;;;;;;4960865;28;20046;-87
2020/12/11 00:08:46;;;;;;;39.35;20.95;;;;;;;;;;4960463;28;20089;-88
2020/12/11 00:11:12;;;;;;;40.17;21.10;;;;;;;;;;4960127;28;20495;-87
2020/12/11 00:13:39;;;;;;;40.47;22.77;;;;;;;;;;4981853;28;20137;-87
2020/12/11 00:16:06;;;;;;;39.85;22.23;;;;;;;;;;4977906;28;20399;-88
2020/12/11 00:18:32;;;;;;;39.15;21.33;;;;;;;;;;4977590;28;20057;-88
2020/12/11 00:20:58;;;;;;;41.28;23.40;;;;;;;;;;4977114;28;20047;-87
2020/12/11 00:23:26;;;;;;;46.10;24.00;;;;;;;;;;4977531;28;20050;-88
2020/12/11 00:25:58;;;;;;;41.42;23.08;;;;;;;;;;4960126;28;20101;-87
2020/12/11 00:28:24;;;;;;;43.80;24.15;;;;;;;;;;4977178;28;20074;-87
2020/12/11 00:30:51;;;;;;;36.47;19.88;;;;;;;;;;4960285;28;20054;-87
2020/12/11 00:33:17;;;;;;;36.25;20.33;;;;;;;;;;4977725;28;20053;-87
2020/12/11 00:35:43;;;;;;;43.30;20.95;;;;;;;;;;4960130;28;20061;-87
2020/12/11 00:38:10;;;;;;;42.40;21.00;;;;;;;;;;4977129;28;20051;-87
2020/12/11 00:40:36;;;;;;;41.33;20.55;;;;;;;;;;4960223;28;20047;-87
2020/12/11 00:43:05;;;;;;;37.92;20.60;;;;;;;;;;4961792;28;20439;-88
2020/12/11 00:45:34;;;;;;;39.28;22.00;;;;;;;;;;4964825;28;20055;-88
2020/12/11 00:48:00;;;;;;;41.03;21.15;;;;;;;;;;4960716;28;20046;-88
2020/12/11 00:50:26;;;;;;;41.38;22.20;;;;;;;;;;4977636;28;20059;-88
2020/12/11 00:52:52;;;;;;;40.85;21.67;;;;;;;;;;4977121;28;20051;-87
2020/12/11 00:55:21;;;;;;;36.97;20.70;;;;;;;;;;4977828;28;20053;-88
2020/12/11 00:57:47;;;;;;;40.63;21.42;;;;;;;;;;4960329;28;20562;-88
2020/12/11 01:00:14;;;;;;;35.58;20.80;;;;;;;;;;4959327;28;20050;-87
2020/12/11 01:02:40;;;;;;;36.15;20.00;;;;;;;;;;4977003;28;20061;-88
2020/12/11 01:05:07;;;;;;;36.38;18.77;;;;;;;;;;4959852;28;20082;-88
2020/12/11 01:07:33;;;;;;;38.45;20.48;;;;;;;;;;4977257;28;20061;-88
2020/12/11 01:10:00;;;;;;;41.85;20.88;;;;;;;;;;4977568;28;20053;-87
2020/12/11 01:12:26;;;;;;;38.95;21.27;;;;;;;;;;4960479;28;20139;-87
2020/12/11 01:14:52;;;;;;;40.00;19.50;;;;;;;;;;4960761;28;20109;-88
2020/12/11 01:17:18;;;;;;;39.78;20.42;;;;;;;;;;4977270;28;20062;-88
2020/12/11 01:19:44;;;;;;;39.42;21.27;;;;;;;;;;4976978;28;20051;-87
2020/12/11 01:22:11;;;;;;;41.22;21.40;;;;;;;;;;4976041;28;20078;-87
2020/12/11 01:24:37;;;;;;;36.47;19.65;;;;;;;;;;4975986;28;20062;-87
2020/12/11 01:27:03;;;;;;;41.13;20.30;;;;;;;;;;4976352;28;20145;-88
2020/12/11 01:29:29;;;;;;;39.50;20.10;;;;;;;;;;4959607;28;20050;-87
2020/12/11 01:31:55;;;;;;;38.97;20.42;;;;;;;;;;4977105;28;20051;-87
2020/12/11 01:34:21;;;;;;;44.83;20.98;;;;;;;;;;4976208;28;20058;-87
2020/12/11 01:36:47;;;;;;;40.05;21.15;;;;;;;;;;4958661;28;20057;-87
2020/12/11 01:39:14;;;;;;;39.78;22.13;;;;;;;;;;4958863;28;20061;-88
2020/12/11 01:41:40;;;;;;;36.83;19.15;;;;;;;;;;4958742;28;20047;-87
2020/12/11 01:44:07;;;;;;;41.38;21.15;;;;;;;;;;4943218;28;20086;-87
2020/12/11 01:46:37;;;;;;;42.17;21.92;;;;;;;;;;4975969;28;20055;-87
2020/12/11 01:49:03;;;;;;;43.03;22.15;;;;;;;;;;4975830;28;20109;-87
2020/12/11 01:51:29;;;;;;;46.08;22.58;;;;;;;;;;4975322;28;20043;-87
2020/12/11 01:53:56;;;;;;;40.20;22.05;;;;;;;;;;4958837;28;20055;-87
2020/12/11 01:56:26;;;;;;;41.35;21.73;;;;;;;;;;4958969;28;20039;-87
2020/12/11 01:59:04;;;;;;;48.28;22.83;;;;;;;;;;4975509;28;20055;-87
2020/12/11 02:01:31;;;;;;;46.88;23.70;;;;;;;;;;4958383;28;20079;-87
2020/12/11 02:03:57;;;;;;;45.90;23.25;;;;;;;;;;4974712;28;20055;-87
2020/12/11 02:06:24;;;;;;;43.15;23.23;;;;;;;;;;4975750;28;20053;-88
2020/12/11 02:08:54;;;;;;;44.55;22.25;;;;;;;;;;4958083;28;20487;-87
2020/12/11 02:11:20;;;;;;;44.38;22.75;;;;;;;;;;4975738;28;20058;-88
2020/12/11 02:13:48;;;;;;;39.85;21.88;;;;;;;;;;4975180;28;20391;-88
2020/12/11 02:16:14;;;;;;;43.90;23.02;;;;;;;;;;4958180;28;20384;-88
2020/12/11 02:18:43;;;;;;;43.63;23.70;;;;;;;;;;4974423;28;20495;-88
2020/12/11 02:21:09;;;;;;;51.78;25.50;;;;;;;;;;4974729;28;20054;-88
2020/12/11 02:23:36;;;;;;;40.80;22.92;;;;;;;;;;4957545;28;20047;-88
2020/12/11 02:26:02;;;;;;;46.63;27.42;;;;;;;;;;4975025;28;20054;-88
2020/12/11 02:28:31;;;;;;;42.58;23.73;;;;;;;;;;4974944;28;20118;-88
2020/12/11 02:30:57;;;;;;;40.67;21.92;;;;;;;;;;4941587;28;20502;-88
2020/12/11 02:33:23;;;;;;;39.90;21.73;;;;;;;;;;4957513;28;20047;-88
2020/12/11 02:35:49;;;;;;;37.15;21.52;;;;;;;;;;4957840;28;20043;-88
2020/12/11 02:38:15;;;;;;;37.28;21.23;;;;;;;;;;4957337;28;20047;-88
2020/12/11 02:40:47;;;;;;;35.75;20.42;;;;;;;;;;4957381;28;20102;-88
2020/12/11 02:43:13;;;;;;;35.00;20.50;;;;;;;;;;4974294;28;20062;-89
2020/12/11 02:45:40;;;;;;;37.88;20.55;;;;;;;;;;4957121;28;20049;-88
2020/12/11 02:48:06;;;;;;;39.30;21.45;;;;;;;;;;4941313;28;20121;-88
2020/12/11 02:50:32;;;;;;;36.35;21.42;;;;;;;;;;4956859;28;20061;-89
2020/12/11 02:52:58;;;;;;;36.75;21.30;;;;;;;;;;4974641;28;20051;-88
2020/12/11 02:55:24;;;;;;;33.70;20.30;;;;;;;;;;4957743;28;20656;-88
2020/12/11 02:57:52;;;;;;;33.10;19.17;;;;;;;;;;4957137;28;20058;-88
2020/12/11 03:00:18;;;;;;;34.17;20.65;;;;;;;;;;4957333;28;20047;-89
2020/12/11 03:02:44;;;;;;;32.40;19.13;;;;;;;;;;4956863;28;20059;-88
2020/12/11 03:05:10;;;;;;;32.60;19.38;;;;;;;;;;4956871;28;20055;-88
2020/12/11 03:07:36;;;;;;;32.75;19.50;;;;;;;;;;4957601;28;20055;-89
2020/12/11 03:10:03;;;;;;;35.35;21.52;;;;;;;;;;4957124;28;20078;-88
2020/12/11 03:12:29;;;;;;;32.58;19.30;;;;;;;;;;4957147;28;20051;-89
2020/12/11 03:14:56;;;;;;;33.13;19.83;;;;;;;;;;4959008;28;20105;-89
2020/12/11 03:17:22;;;;;;;30.17;19.10;;;;;;;;;;4978088;28;20043;-88
2020/12/11 03:19:48;;;;;;;37.40;22.33;;;;;;;;;;4960754;28;20054;-88
2020/12/11 03:22:14;;;;;;;32.92;19.25;;;;;;;;;;4960524;28;20054;-88
2020/12/11 03:24:40;;;;;;;30.40;18.95;;;;;;;;;;4960129;28;20058;-89
2020/12/11 03:27:06;;;;;;;31.05;19.45;;;;;;;;;;4960884;28;20043;-89
2020/12/11 03:29:32;;;;;;;34.67;19.73;;;;;;;;;;4977230;28;20414;-88
2020/12/11 03:31:59;;;;;;;32.90;20.85;;;;;;;;;;4943370;28;20057;-88
2020/12/11 03:34:25;;;;;;;34.70;20.15;;;;;;;;;;4943685;28;20085;-88
2020/12/11 03:36:51;;;;;;;34.17;20.38;;;;;;;;;;4962257;28;20055;-88
2020/12/11 03:39:17;;;;;;;32.22;19.33;;;;;;;;;;4977768;28;20540;-89
2020/12/11 03:41:43;;;;;;;33.13;20.38;;;;;;;;;;4944728;28;20739;-89
2020/12/11 03:44:09;;;;;;;32.95;20.08;;;;;;;;;;4977845;28;20134;-89
2020/12/11 03:46:35;;;;;;;33.92;20.38;;;;;;;;;;4978328;28;20050;-89
2020/12/11 03:49:02;;;;;;;32.72;19.70;;;;;;;;;;4977584;28;20051;-88
2020/12/11 03:51:28;;;;;;;32.08;19.55;;;;;;;;;;4960805;28;20407;-88
2020/12/11 03:53:54;;;;;;;34.10;20.30;;;;;;;;;;4977250;28;20115;-88
2020/12/11 03:56:21;;;;;;;36.70;21.23;;;;;;;;;;4960715;28;20050;-89
2020/12/11 03:58:47;;;;;;;29.70;19.17;;;;;;;;;;4960547;28;20096;-89
2020/12/11 04:01:14;;;;;;;31.85;20.00;;;;;;;;;;4944469;28;20043;-89
2020/12/11 04:03:41;;;;;;;30.85;19.50;;;;;;;;;;4960318;28;20063;-89
2020/12/11 04:06:08;;;;;;;35.13;20.55;;;;;;;;;;4977050;28;20058;-89
2020/12/11 04:08:35;;;;;;;32.45;20.38;;;;;;;;;;4959871;28;20507;-89
2020/12/11 04:11:04;;;;;;;32.83;19.73;;;;;;;;;;4959892;28;20066;-89
2020/12/11 04:13:30;;;;;;;32.45;20.58;;;;;;;;;;4976952;28;20421;-89
2020/12/11 04:15:56;;;;;;;33.78;19.92;;;;;;;;;;4977512;28;20053;-89
2020/12/11 04:18:22;;;;;;;35.22;21.33;;;;;;;;;;4959447;28;20051;-89
2020/12/11 04:20:48;;;;;;;31.45;19.92;;;;;;;;;;4977221;28;20133;-89
2020/12/11 04:23:15;;;;;;;34.65;21.77;;;;;;;;;;4976999;28;20051;-89
2020/12/11 04:25:41;;;;;;;35.72;22.55;;;;;;;;;;4958869;28;20502;-89
2020/12/11 04:28:07;;;;;;;32.08;20.92;;;;;;;;;;4959640;28;20062;-89
2020/12/11 04:30:33;;;;;;;30.02;20.00;;;;;;;;;;4977022;28;20043;-89
2020/12/11 04:32:59;;;;;;;35.00;22.23;;;;;;;;;;4976598;28;20069;-89
2020/12/11 04:35:25;;;;;;;34.13;20.48;;;;;;;;;;4976855;28;20490;-89
2020/12/11 04:37:51;;;;;;;32.47;18.40;;;;;;;;;;4976229;28;20410;-89
2020/12/11 04:40:19;;;;;;;29.77;18.75;;;;;;;;;;4959379;28;20486;-89
2020/12/11 04:42:46;;;;;;;30.42;18.60;;;;;;;;;;4975859;28;20055;-89
2020/12/11 04:45:12;;;;;;;32.47;19.65;;;;;;;;;;4959252;28;20074;-89
2020/12/11 04:47:41;;;;;;;33.45;20.90;;;;;;;;;;4976192;28;20518;-89
2020/12/11 04:50:07;;;;;;;28.98;18.52;;;;;;;;;;4959249;28;20043;-88
2020/12/11 04:52:36;;;;;;;31.42;19.27;;;;;;;;;;4976416;28;20051;-88
2020/12/11 04:55:04;;;;;;;34.05;20.30;;;;;;;;;;4958898;28;20097;-89
2020/12/11 04:57:32;;;;;;;30.15;17.80;;;;;;;;;;4958821;28;20058;-89
2020/12/11 04:59:59;;;;;;;31.02;18.08;;;;;;;;;;4958998;28;20089;-89
2020/12/11 05:02:26;;;;;;;34.28;19.88;;;;;;;;;;4976213;28;20043;-89
2020/12/11 05:04:53;;;;;;;30.20;18.65;;;;;;;;;;4975586;28;20054;-89
2020/12/11 05:07:19;;;;;;;33.25;19.25;;;;;;;;;;4942782;28;20050;-89
2020/12/11 05:09:54;;;;;;;31.02;19.38;;;;;;;;;;4976155;28;20054;-89
2020/12/11 05:12:20;;;;;;;30.02;17.95;;;;;;;;;;4958646;28;20055;-89
2020/12/11 05:14:48;;;;;;;29.95;18.67;;;;;;;;;;4942802;28;20047;-89
2020/12/11 05:17:14;;;;;;;28.75;17.08;;;;;;;;;;4975749;28;20051;-90
2020/12/11 05:19:51;;;;;;;32.95;19.50;;;;;;;;;;4958515;28;20514;-89
2020/12/11 05:22:18;;;;;;;30.00;18.10;;;;;;;;;;4975731;28;20047;-89
2020/12/11 05:24:45;;;;;;;29.67;18.83;;;;;;;;;;4976041;28;20055;-89
2020/12/11 05:27:39;;;;;;;32.30;19.30;;;;;;;;;;4975884;28;20062;-89
2020/12/11 05:30:25;;;;;;;33.42;19.23;;;;;;;;;;4928352;28;20132;-88
2020/12/11 05:32:53;;;;;;;31.95;18.88;;;;;;;;;;4956499;29;20134;-89
2020/12/11 05:35:28;;;;;;;33.38;20.00;;;;;;;;;;4990618;28;20054;-89
2020/12/11 05:37:57;;;;;;;34.05;19.42;;;;;;;;;;4976889;28;20146;-88
2020/12/11 05:40:28;;;;;;;32.08;18.58;;;;;;;;;;4945145;28;20129;-87
2020/12/11 05:43:11;;;;;;;31.27;17.92;;;;;;;;;;4977176;28;20142;-87
2020/12/11 05:45:39;;;;;;;32.05;18.65;;;;;;;;;;4962488;28;20050;-87
2020/12/11 05:48:06;;;;;;;32.70;17.98;;;;;;;;;;4980127;28;20054;-88
2020/12/11 05:50:32;;;;;;;32.17;19.15;;;;;;;;;;4994036;28;20050;-89
2020/12/11 05:52:58;;;;;;;31.67;18.10;;;;;;;;;;4994557;28;20054;-89
2020/12/11 05:55:24;;;;;;;30.35;18.40;;;;;;;;;;4994692;28;20081;-89
2020/12/11 05:57:52;;;;;;;29.77;17.95;;;;;;;;;;4983813;28;20043;-89
2020/12/11 06:00:19;;;;;;;34.50;19.77;;;;;;;;;;4957555;28;20137;-91
2020/12/11 06:02:48;;;;;;;30.15;17.88;;;;;;;;;;4981486;28;20089;-89
2020/12/11 06:05:15;;;;;;;33.15;19.90;;;;;;;;;;4976829;28;20057;-89
2020/12/11 06:07:43;;;;;;;30.67;17.92;;;;;;;;;;4989608;28;20043;-90
2020/12/11 06:10:09;;;;;;;28.40;17.85;;;;;;;;;;4957202;28;20054;-90
2020/12/11 06:12:34;;;;;;;32.35;18.13;;;;;;;;;;4957722;28;20055;-89
2020/12/11 06:15:06;;;;;;;32.05;18.27;;;;;;;;;;4974682;28;20105;-89
2020/12/11 06:17:34;;;;;;;32.92;18.92;;;;;;;;;;4957815;28;20082;-90
2020/12/11 06:20:07;;;;;;;30.80;17.63;;;;;;;;;;4957606;28;20054;-89
2020/12/11 06:22:33;;;;;;;31.80;18.52;;;;;;;;;;4955696;29;20051;-89
2020/12/11 06:25:29;;;;;;;29.98;16.90;;;;;;;;;;4955552;29;20110;-90
2020/12/11 06:27:56;;;;;;;39.80;21.70;;;;;;;;;;4938618;29;20057;-90
2020/12/11 06:30:24;;;;;;;43.65;23.80;;;;;;;;;;4955780;29;20573;-88
2020/12/11 06:32:50;;;;;;;40.55;23.73;;;;;;;;;;4955835;29;20055;-89
2020/12/11 06:35:17;;;;;;;39.55;21.20;;;;;;;;;;4955538;28;20051;-89
2020/12/11 06:37:43;;;;;;;38.45;22.27;;;;;;;;;;4955403;29;20048;-90
2020/12/11 06:40:09;;;;;;;36.08;20.52;;;;;;;;;;4955267;29;20059;-90
2020/12/11 06:42:40;;;;;;;37.25;20.40;;;;;;;;;;4945876;28;20051;-89
2020/12/11 06:45:17;;;;;;;35.75;20.52;;;;;;;;;;4964205;28;20050;-89
2020/12/11 06:47:47;;;;;;;;;;;;;;;;;;4969372;28;20098;-90
2020/12/11 06:50:20;;;;;;;34.30;19.33;;;;;;;;;;4974383;28;19929;-89
2020/12/11 06:52:53;;;;;;;37.85;19.67;;;;;;;;;;4958900;28;20138;-90
2020/12/11 06:55:19;;;;;;;33.83;19.40;;;;;;;;;;4979602;28;20060;-89
2020/12/11 06:57:56;;;;;;;36.40;19.40;;;;;;;;;;4990986;28;20057;-90
2020/12/11 07:00:45;;;;;;;33.97;20.65;;;;;;;;;;4976978;28;20053;-89
2020/12/11 07:03:21;;;;;;;35.92;19.55;;;;;;;;;;4976760;28;20051;-90
2020/12/11 07:06:10;;;;;;;37.58;21.10;;;;;;;;;;4940506;29;20047;-89
2020/12/11 07:08:42;;;;;;;43.22;24.83;;;;;;;;;;4939805;29;20055;-89
2020/12/11 07:11:10;;;;;;;39.85;22.60;;;;;;;;;;4973343;28;20446;-89
2020/12/11 07:13:37;;;;;;;41.00;23.00;;;;;;;;;;4975603;28;20047;-90
2020/12/11 07:16:04;;;;;;;40.05;24.27;;;;;;;;;;4956137;29;20086;-90
2020/12/11 07:18:31;;;;;;;45.22;25.77;;;;;;;;;;4954584;29;20137;-90
2020/12/11 07:20:59;;;;;;;39.75;23.60;;;;;;;;;;4956065;29;20436;-89
2020/12/11 07:23:25;;;;;;;34.58;19.42;;;;;;;;;;4957153;28;20059;-89
2020/12/11 07:25:55;;;;;;;41.90;23.23;;;;;;;;;;4979273;28;20405;-89
2020/12/11 07:28:21;;;;;;;40.47;22.25;;;;;;;;;;4975037;28;20146;-89
2020/12/11 07:30:48;;;;;;;40.83;22.50;;;;;;;;;;4975625;28;20055;-90
2020/12/11 07:33:17;;;;;;;37.22;19.95;;;;;;;;;;4974444;28;20109;-90
2020/12/11 07:35:46;;;;;;;38.97;21.25;;;;;;;;;;4973420;28;20047;-90
2020/12/11 07:38:13;;;;;;;35.95;19.85;;;;;;;;;;4997514;28;20064;-88
2020/12/11 07:40:39;;;;;;;35.10;20.40;;;;;;;;;;4997131;28;20056;-88
2020/12/11 07:43:18;;;;;;;38.70;21.48;;;;;;;;;;4979529;28;20054;-88
2020/12/11 07:45:46;;;;;;;42.28;22.75;;;;;;;;;;4976468;28;20551;-89
2020/12/11 07:48:14;;;;;;;52.10;29.77;;;;;;;;;;4959578;28;20054;-89
2020/12/11 07:50:44;;;;;;;36.92;22.70;;;;;;;;;;4959953;28;20055;-89
2020/12/11 07:53:13;;;;;;;36.85;22.08;;;;;;;;;;4958742;28;20067;-89
2020/12/11 07:55:39;;;;;;;34.72;19.40;;;;;;;;;;4978915;28;20079;-89
2020/12/11 07:58:08;;;;;;;38.28;20.33;;;;;;;;;;4962323;28;20433;-89
2020/12/11 08:00:38;;;;;;;44.53;24.50;;;;;;;;;;4978816;28;20523;-88
2020/12/11 08:03:06;;;;;;;47.83;25.33;;;;;;;;;;4998097;28;20046;-89
2020/12/11 08:05:34;;;;;;;46.58;24.33;;;;;;;;;;4963634;28;20058;-90
2020/12/11 08:08:00;;;;;;;38.35;21.67;;;;;;;;;;4997174;28;20074;-89
2020/12/11 08:10:35;;;;;;;40.97;21.60;;;;;;;;;;4964289;28;20051;-90
2020/12/11 08:13:09;;;;;;;38.85;21.95;;;;;;;;;;4980494;28;20581;-91
2020/12/11 08:15:37;;;;;;;42.05;23.38;;;;;;;;;;4998837;28;20058;-88
2020/12/11 08:18:12;;;;;;;39.30;22.40;;;;;;;;;;4998104;28;20088;-90
2020/12/11 08:20:55;;;;;;;37.40;20.85;;;;;;;;;;4997785;28;20054;-89
2020/12/11 08:23:23;;;;;;;40.97;22.73;;;;;;;;;;4998002;28;20054;-89
2020/12/11 08:26:16;;;;;;;42.70;23.15;;;;;;;;;;4924478;29;20081;-89
2020/12/11 08:29:04;;;;;;;46.60;25.77;;;;;;;;;;4938235;29;20047;-89
2020/12/11 08:31:31;;;;;;;45.17;23.67;;;;;;;;;;4941061;29;20058;-89
2020/12/11 08:34:03;;;;;;;42.70;23.35;;;;;;;;;;4957866;29;20051;-90
2020/12/11 08:36:31;;;;;;;42.83;22.98;;;;;;;;;;4958169;29;20047;-89
2020/12/11 08:39:15;;;;;;;42.50;22.38;;;;;;;;;;4961128;29;20751;-89
2020/12/11 08:41:45;;;;;;;39.08;21.20;;;;;;;;;;4979391;28;20047;-87
2020/12/11 08:44:18;;;;;;;37.33;21.50;;;;;;;;;;4963921;28;20133;-88
2020/12/11 08:46:56;;;;;;;41.55;22.60;;;;;;;;;;4945203;28;20062;-88
2020/12/11 08:49:40;;;;;;;39.63;22.08;;;;;;;;;;4962038;28;20098;-88
2020/12/11 08:52:07;;;;;;;39.85;20.85;;;;;;;;;;4961261;28;20404;-89
2020/12/11 08:54:33;;;;;;;37.67;20.98;;;;;;;;;;4977733;28;20062;-88
2020/12/11 08:56:59;;;;;;;38.58;20.98;;;;;;;;;;4961379;28;20061;-88
2020/12/11 08:59:26;;;;;;;37.90;20.35;;;;;;;;;;4978369;28;20134;-88
2020/12/11 09:01:52;;;;;;;40.20;21.80;;;;;;;;;;4976125;28;20047;-89
2020/12/11 09:04:18;;;;;;;38.40;21.27;;;;;;;;;;4958918;28;20534;-88
2020/12/11 09:06:44;;;;;;;36.22;19.10;;;;;;;;;;4977078;28;20042;-89
2020/12/11 09:09:10;;;;;;;36.38;20.38;;;;;;;;;;4976212;28;20521;-89
2020/12/11 09:11:37;;;;;;;37.47;20.35;;;;;;;;;;4958761;28;20180;-90
2020/12/11 09:14:03;;;;;;;36.05;20.05;;;;;;;;;;4959358;28;20059;-88
2020/12/11 09:16:29;;;;;;;34.92;19.45;;;;;;;;;;4975932;28;20056;-89
2020/12/11 09:18:56;;;;;;;34.85;20.55;;;;;;;;;;4976211;28;20178;-88
2020/12/11 09:21:21;;;;;;;36.85;20.67;;;;;;;;;;4976019;28;20062;-88
2020/12/11 09:23:47;;;;;;;33.97;20.50;;;;;;;;;;4976154;28;20078;-89
2020/12/11 09:26:13;;;;;;;35.80;19.90;;;;;;;;;;4975672;28;20050;-88
2020/12/11 09:28:43;;;;;;;33.63;19.23;;;;;;;;;;4958301;28;20050;-89
2020/12/11 09:31:10;;;;;;;41.55;22.08;;;;;;;;;;4943250;28;20496;-89
2020/12/11 09:33:39;;;;;;;33.80;20.20;;;;;;;;;;4958730;28;20106;-89
2020/12/11 09:36:05;;;;;;;36.40;19.90;;;;;;;;;;4958539;28;20062;-89
2020/12/11 09:38:32;;;;;;;39.45;20.00;;;;;;;;;;4962448;28;20134;-89
2020/12/11 09:41:01;;;;;;;37.33;21.08;;;;;;;;;;4972368;28;20078;-89
2020/12/11 09:46:30;;;;;;;32.80;19.17;;;;;;;;;;4970487;28;20050;-90
2020/12/11 09:49:04;;;;;;;36.55;19.63;;;;;;;;;;4976482;28;20061;-89
2020/12/11 09:51:48;;;;;;;37.08;20.02;;;;;;;;;;4943005;28;20133;-90
2020/12/11 09:54:20;;;;;;;34.30;19.60;;;;;;;;;;4977006;28;20058;-89
2020/12/11 09:56:46;;;;;;;32.97;18.95;;;;;;;;;;4976793;28;20549;-89
2020/12/11 09:59:15;;;;;;;33.80;18.80;;;;;;;;;;4942209;28;20145;-89
2020/12/11 10:01:55;;;;;;;33.40;19.30;;;;;;;;;;4975436;28;20518;-89
2020/12/11 10:04:22;;;;;;;32.95;17.67;;;;;;;;;;4976119;28;20054;-89
2020/12/11 10:06:48;;;;;;;30.27;17.17;;;;;;;;;;4942750;28;20046;-88
2020/12/11 10:09:14;;;;;;;32.60;17.55;;;;;;;;;;4975865;28;20061;-88
2020/12/11 10:11:40;;;;;;;31.10;17.05;;;;;;;;;;4958386;28;20094;-89
2020/12/11 10:14:20;;;;;;;28.50;16.58;;;;;;;;;;4977407;28;20050;-89
2020/12/11 10:16:50;;;;;;;27.80;16.63;;;;;;;;;;4975710;28;20047;-87
2020/12/11 10:19:19;;;;;;;31.17;17.95;;;;;;;;;;4976650;28;20046;-90
2020/12/11 10:21:52;;;;;;;28.58;16.98;;;;;;;;;;4976322;28;20058;-88
2020/12/11 10:24:22;;;;;;;28.50;17.20;;;;;;;;;;4977184;28;20388;-89
2020/12/11 10:26:50;;;;;;;28.73;16.30;;;;;;;;;;4975639;28;20054;-90
2020/12/11 10:29:22;;;;;;;27.83;17.02;;;;;;;;;;4975090;28;20133;-89
2020/12/11 10:31:50;;;;;;;32.03;17.98;;;;;;;;;;4976504;28;20134;-90
2020/12/11 10:34:17;;;;;;;26.17;16.42;;;;;;;;;;4975572;28;20447;-90
2020/12/11 10:36:44;;;;;;;25.55;15.68;;;;;;;;;;4975541;28;20053;-89
2020/12/11 10:39:11;;;;;;;29.83;16.75;;;;;;;;;;4987009;28;20120;-89
2020/12/11 10:41:38;;;;;;;28.48;17.05;;;;;;;;;;4975337;28;20119;-89
2020/12/11 10:44:04;;;;;;;26.50;15.68;;;;;;;;;;4975365;28;20486;-89
2020/12/11 10:46:30;;;;;;;29.60;15.80;;;;;;;;;;4974730;28;20505;-89
2020/12/11 10:48:57;;;;;;;26.05;15.00;;;;;;;;;;4975299;28;20054;-90
2020/12/11 10:51:23;;;;;;;26.55;14.45;;;;;;;;;;4994368;28;20078;-89
2020/12/11 10:53:49;;;;;;;26.45;15.35;;;;;;;;;;4993702;28;20055;-89
2020/12/11 10:56:19;;;;;;;26.38;15.82;;;;;;;;;;4977473;28;20069;-88
2020/12/11 10:58:46;;;;;;;27.98;15.77;;;;;;;;;;4978869;28;20055;-89
2020/12/11 11:01:15;;;;;;;29.55;15.80;;;;;;;;;;4978523;28;20061;-89
2020/12/11 11:03:41;;;;;;;23.50;14.93;;;;;;;;;;4976402;28;20054;-89
2020/12/11 11:06:15;;;;;;;24.55;15.07;;;;;;;;;;4994920;28;20133;-89
2020/12/11 11:08:50;;;;;;;24.23;14.57;;;;;;;;;;4994680;28;20085;-88
2020/12/11 11:11:21;;;;;;;25.47;13.87;;;;;;;;;;4978793;28;20050;-89
2020/12/11 11:13:58;;;;;;;26.65;15.05;;;;;;;;;;4977250;28;20086;-89
2020/12/11 11:16:40;;;;;;;25.58;15.82;;;;;;;;;;4977680;28;20056;-89
2020/12/11 11:19:14;;;;;;;24.42;14.90;;;;;;;;;;4994434;28;20141;-89
2020/12/11 11:21:55;;;;;;;24.27;14.93;;;;;;;;;;4979902;28;20145;-89
2020/12/11 11:24:46;;;;;;;27.27;16.27;;;;;;;;;;4999906;28;20050;-88
2020/12/11 11:27:19;;;;;;;25.70;14.15;;;;;;;;;;4987587;28;20078;-88
2020/12/11 11:29:50;;;;;;;25.27;14.38;;;;;;;;;;4984946;28;20105;-87
2020/12/11 11:32:17;;;;;;;25.17;14.43;;;;;;;;;;4985016;28;20046;-89
2020/12/11 11:34:43;;;;;;;24.50;14.43;;;;;;;;;;4982913;28;20078;-88
2020/12/11 11:37:09;;;;;;;23.70;14.15;;;;;;;;;;4987308;28;20046;-88
2020/12/11 11:39:37;;;;;;;23.63;14.25;;;;;;;;;;4979244;28;20097;-87
2020/12/11 11:42:09;;;;;;;22.85;13.88;;;;;;;;;;4966878;28;20396;-88
2020/12/11 11:44:46;;;;;;;20.50;13.25;;;;;;;;;;4962871;28;20075;-90
2020/12/11 11:47:12;;;;;;;25.90;14.70;;;;;;;;;;4962438;28;20047;-89
2020/12/11 11:49:53;;;;;;;26.02;15.15;;;;;;;;;;4950563;28;20490;-88
2020/12/11 11:52:24;;;;;;;19.52;12.77;;;;;;;;;;4979535;28;20559;-89
2020/12/11 11:54:50;;;;;;;22.17;13.82;;;;;;;;;;4981920;28;20058;-89
2020/12/11 11:57:16;;;;;;;25.17;14.85;;;;;;;;;;4979943;28;20052;-89
2020/12/11 11:59:43;;;;;;;23.33;14.32;;;;;;;;;;4993568;28;20047;-89
2020/12/11 12:02:10;;;;;;;22.25;13.80;;;;;;;;;;4979993;28;20046;-90
2020/12/11 12:04:36;;;;;;;22.77;13.77;;;;;;;;;;4997652;28;20050;-89
2020/12/11 12:07:02;;;;;;;22.45;13.55;;;;;;;;;;4964569;28;20062;-92
2020/12/11 12:09:28;;;;;;;26.13;15.20;;;;;;;;;;4969409;28;20491;-91
2020/12/11 12:11:54;;;;;;;24.90;15.15;;;;;;;;;;4997449;28;20401;-90
2020/12/11 12:14:20;;;;;;;23.48;14.27;;;;;;;;;;4978164;28;20054;-90
2020/12/11 12:16:50;;;;;;;25.55;14.20;;;;;;;;;;4977173;28;20057;-90
2020/12/11 12:19:21;;;;;;;24.77;13.73;;;;;;;;;;4962275;28;20058;-90
2020/12/11 12:22:07;;;;;;;25.60;14.25;;;;;;;;;;4990037;28;20066;-91
2020/12/11 12:30:00;;;;;;;20.13;13.02;;;;;;;;;;4959675;28;20081;-88
2020/12/11 12:32:31;;;;;;;24.10;14.65;;;;;;;;;;4963388;28;20074;-89
2020/12/11 12:34:59;;;;;;;24.70;15.18;;;;;;;;;;4979773;28;20157;-88
2020/12/11 12:37:41;;;;;;;22.90;14.00;;;;;;;;;;4995469;28;20425;-89
2020/12/11 12:43:14;;;;;;;21.98;14.05;;;;;;;;;;4972918;28;20065;-89
2020/12/11 12:45:40;;;;;;;24.33;15.25;;;;;;;;;;4999775;28;20043;-85
2020/12/11 12:48:07;;;;;;;23.70;15.40;;;;;;;;;;4943499;28;20050;-85
2020/12/11 12:50:33;;;;;;;22.13;14.60;;;;;;;;;;4978394;28;20047;-88
2020/12/11 12:52:59;;;;;;;26.42;15.10;;;;;;;;;;4984903;28;20073;-87
2020/12/11 12:55:39;;;;;;;28.48;16.85;;;;;;;;;;4984259;28;20118;-88
2020/12/11 12:58:06;;;;;;;33.83;15.38;;;;;;;;;;4987457;28;20061;-88
2020/12/11 13:00:33;;;;;;;22.85;14.82;;;;;;;;;;4981988;28;20125;-89
2020/12/11 13:05:47;;;;;;;26.20;16.35;;;;;;;;;;5001472;28;20052;-88
2020/12/11 13:08:13;;;;;;;24.48;15.32;;;;;;;;;;4983757;28;20051;-88
2020/12/11 13:10:39;;;;;;;25.40;17.10;;;;;;;;;;5000002;28;20046;-88
2020/12/11 13:13:08;;;;;;;24.48;15.73;;;;;;;;;;4984108;28;20069;-88
2020/12/11 13:15:35;;;;;;;24.98;15.65;;;;;;;;;;4964141;28;20073;-87
2020/12/11 13:18:01;;;;;;;22.83;15.38;;;;;;;;;;4963196;28;20113;-88
2020/12/11 13:20:30;;;;;;;24.40;15.25;;;;;;;;;;4990566;28;20054;-88
2020/12/11 13:28:23;;;;;;;26.00;15.90;;;;;;;;;;4957194;28;20058;-88
2020/12/11 13:30:49;;;;;;;26.75;17.45;;;;;;;;;;4991625;28;20051;-88
2020/12/11 13:33:15;;;;;;;26.60;16.55;;;;;;;;;;4978079;28;20050;-88
2020/12/11 13:35:41;;;;;;;22.40;14.82;;;;;;;;;;4962291;28;20110;-88
2020/12/11 13:38:08;;;;;;;23.45;15.27;;;;;;;;;;4948066;28;20046;-85
2020/12/11 13:40:34;;;;;;;25.83;16.88;;;;;;;;;;4962026;28;20064;-88
2020/12/11 13:43:01;;;;;;;26.15;16.25;;;;;;;;;;4960978;28;20050;-87
2020/12/11 13:45:27;;;;;;;25.85;16.77;;;;;;;;;;4978524;28;20406;-87
2020/12/11 13:47:53;;;;;;;28.65;16.67;;;;;;;;;;4960338;28;20050;-88
2020/12/11 13:50:19;;;;;;;27.40;17.23;;;;;;;;;;4946258;28;20109;-87
2020/12/11 13:52:45;;;;;;;27.67;17.23;;;;;;;;;;4973469;28;20059;-87
2020/12/11 13:55:12;;;;;;;25.52;16.80;;;;;;;;;;4980330;28;20054;-90
2020/12/11 13:57:38;;;;;;;27.33;17.17;;;;;;;;;;4972432;28;20043;-89
2020/12/11 14:00:06;;;;;;;29.73;20.73;;;;;;;;;;4974421;28;20047;-90
2020/12/11 14:02:32;;;;;;;31.33;17.55;;;;;;;;;;4958446;28;20051;-90
2020/12/11 14:04:58;;;;;;;30.80;18.63;;;;;;;;;;4975538;28;20057;-91
2020/12/11 14:07:24;;;;;;;32.83;19.38;;;;;;;;;;4962852;28;20065;-90
2020/12/11 14:09:51;;;;;;;29.30;18.35;;;;;;;;;;4959494;28;20137;-90
2020/12/11 14:12:18;;;;;;;30.27;18.75;;;;;;;;;;4960499;28;20085;-88
2020/12/11 14:14:44;;;;;;;34.22;19.98;;;;;;;;;;4960476;28;20054;-88
2020/12/11 14:17:12;;;;;;;31.67;18.35;;;;;;;;;;4980799;28;20466;-88
2020/12/11 14:22:23;;;;;;;31.40;19.73;;;;;;;;;;4978759;28;20054;-88
2020/12/11 14:24:49;;;;;;;36.50;21.98;;;;;;;;;;4962663;28;20061;-88
2020/12/11 14:27:15;;;;;;;30.85;19.20;;;;;;;;;;4961744;28;20055;-88
2020/12/11 14:29:42;;;;;;;30.92;18.90;;;;;;;;;;4960574;28;20160;-88
2020/12/11 14:32:09;;;;;;;27.60;18.02;;;;;;;;;;4978413;28;20603;-88
2020/12/11 14:34:41;;;;;;;28.38;18.27;;;;;;;;;;4944820;28;20085;-87
2020/12/11 14:37:07;;;;;;;35.53;19.33;;;;;;;;;;4978291;28;20098;-87
2020/12/11 14:39:33;;;;;;;30.65;19.65;;;;;;;;;;4977866;28;20511;-87
2020/12/11 14:42:00;;;;;;;27.02;17.75;;;;;;;;;;4960424;28;20138;-88
2020/12/11 14:44:26;;;;;;;29.90;19.52;;;;;;;;;;4977287;28;20046;-87
2020/12/11 14:46:53;;;;;;;32.00;19.77;;;;;;;;;;4959512;28;20054;-87
2020/12/11 14:49:19;;;;;;;32.95;20.38;;;;;;;;;;4959743;28;20051;-87